Time;durP1;ratioP1;P1;durP2;ratioP2;P2;SDS_P1;SDS_P2;PMS_P1;PMS_P2;Temp;Humidity;BMP_temperature;BMP_pressure;BME280_temperature;BME280_humidity;BME280_pressure;Samples;Min_cycle;Max_cycle;Signal;HPM_P1;HPM_P2
2022/12/07 00:01:42;;;;;;;10.83;5.13;;;6.50;95.10;;;6.98;64.35;98791.63;4964380;28;123802;-76
2022/12/07 00:04:13;;;;;;;8.97;4.80;;;6.50;95.10;;;7.02;63.92;98794.63;4967954;28;115912;-75
2022/12/07 00:06:46;;;;;;;7.10;5.00;;;6.50;95.10;;;7.04;63.96;98789.69;4941291;28;114292;-75
2022/12/07 00:09:16;;;;;;;5.60;4.53;;;6.50;95.10;;;7.05;63.83;98792.13;4970297;28;124344;-76
2022/12/07 00:11:48;;;;;;;5.97;4.57;;;6.60;95.10;;;7.07;64.06;98794.59;4957314;28;123454;-76
2022/12/07 00:14:16;;;;;;;4.00;3.30;;;6.60;95.40;;;7.08;64.22;98794.28;4936115;28;113696;-76
2022/12/07 00:16:44;;;;;;;8.90;4.50;;;6.60;95.10;;;7.08;63.74;98786.03;4952976;28;113829;-76
2022/12/07 00:19:13;;;;;;;6.30;4.40;;;6.60;95.10;;;7.11;63.85;98790.13;4966348;28;124169;-76
2022/12/07 00:21:40;;;;;;;6.03;4.17;;;7.20;95.30;;;7.11;63.54;98792.06;4967528;28;123676;-76
2022/12/07 00:24:07;;;;;;;5.97;4.60;;;6.60;95.30;;;7.12;63.60;98785.47;4954627;28;113371;-76
2022/12/07 00:26:37;;;;;;;5.20;3.97;;;6.60;95.00;;;7.11;63.73;98783.84;4950523;28;115121;-76
2022/12/07 00:29:26;;;;;;;7.03;5.13;;;7.10;95.20;;;7.10;63.48;98783.00;4955441;28;123486;-76
2022/12/07 00:31:52;;;;;;;7.83;5.27;;;6.60;95.00;;;7.06;63.44;98790.19;4954316;28;123016;-76
2022/12/07 00:34:21;;;;;;;6.17;4.50;;;6.60;94.90;;;7.03;63.52;98777.84;4971312;28;113275;-76
2022/12/07 00:36:49;;;;;;;6.67;4.80;;;7.30;95.20;;;7.05;63.65;98783.06;4969908;28;113836;-75
2022/12/07 00:39:16;;;;;;;6.13;4.60;;;6.60;94.90;;;7.03;63.87;98786.09;4966046;28;124014;-76
2022/12/07 00:41:42;;;;;;;6.77;5.37;;;6.60;94.80;;;7.01;63.39;98782.00;4953504;28;124043;-75
2022/12/07 00:44:09;;;;;;;6.10;4.60;;;7.20;95.40;;;7.01;63.68;98785.59;4948564;28;113220;-75
2022/12/07 00:46:35;;;;;;;6.00;4.83;;;6.60;94.80;;;7.01;63.20;98784.75;4972323;28;113401;-75
2022/12/07 00:49:02;;;;;;;8.53;5.53;;;6.60;94.80;;;7.01;63.51;98785.59;4952075;28;123782;-75
2022/12/07 00:51:29;;;;;;;7.53;5.20;;;6.60;94.80;;;6.99;63.47;98771.31;4953154;28;123769;-75
2022/12/07 00:53:55;;;;;;;8.70;5.20;;;6.50;94.70;;;6.99;63.46;98778.75;4971347;28;114006;-75
2022/12/07 00:56:25;;;;;;;7.43;5.43;;;6.50;94.70;;;7.01;63.55;98774.59;4970985;28;113822;-75
2022/12/07 00:59:00;;;;;;;7.60;5.40;;;5.00;94.10;;;7.01;63.48;98784.75;4955637;28;122884;-76
2022/12/07 01:01:31;;;;;;;7.00;5.00;;;6.50;94.60;;;7.00;63.38;98772.94;4970685;28;123653;-76
2022/12/07 01:03:58;;;;;;;7.70;5.83;;;6.50;94.60;;;7.01;62.90;98785.59;4971603;28;114346;-76
2022/12/07 01:06:25;;;;;;;7.57;5.20;;;6.50;94.60;;;7.02;63.39;98776.22;4972506;28;113055;-76
2022/12/07 01:09:13;;;;;;;7.87;5.60;;;6.60;94.60;;;7.03;62.81;98769.59;4970435;28;124092;-76
2022/12/07 01:11:40;;;;;;;6.57;5.07;;;6.60;94.50;;;7.03;63.17;98785.28;4973823;28;123758;-75
2022/12/07 01:14:26;;;;;;;7.30;5.40;;;6.60;94.50;;;7.04;62.75;98782.25;4956782;28;114331;-75
2022/12/07 01:16:54;;;;;;;8.63;6.40;;;6.60;94.50;;;7.01;62.30;98785.59;4952836;28;114315;-75
2022/12/07 01:19:22;;;;;;;8.70;5.93;;;6.50;94.30;;;6.98;62.51;98788.06;4956151;28;124728;-75
2022/12/07 01:21:48;;;;;;;9.93;6.70;;;6.50;94.40;;;6.96;62.81;98787.53;4972685;28;123876;-75
2022/12/07 01:24:15;;;;;;;6.93;5.40;;;5.20;93.80;;;6.96;62.54;98784.78;4963896;28;112166;-75
2022/12/07 01:26:41;;;;;;;8.60;6.03;;;6.50;94.30;;;6.97;62.64;98786.44;4978091;28;114187;-76
2022/12/07 01:29:07;;;;;;;8.20;5.50;;;6.50;94.30;;;6.96;62.50;98788.38;4978264;28;124400;-76
2022/12/07 01:31:34;;;;;;;6.30;5.10;;;6.60;94.30;;;6.97;62.90;98790.00;4979059;28;123909;-75
2022/12/07 01:34:01;;;;;;;7.00;5.67;;;6.50;94.30;;;6.97;62.22;98795.50;4977131;28;113721;-75
2022/12/07 01:36:31;;;;;;;8.60;5.87;;;6.50;94.20;;;6.97;62.50;98795.50;4970574;28;113871;-75
2022/12/07 01:39:04;;;;;;;8.63;5.87;;;6.60;94.20;;;6.96;62.49;98796.63;4973905;28;123873;-75
2022/12/07 01:41:35;;;;;;;8.57;6.20;;;6.50;94.20;;;6.94;62.21;98798.81;4966068;28;123748;-75
2022/12/07 01:44:15;;;;;;;9.27;5.93;;;6.50;94.20;;;6.96;61.99;98801.25;4953627;28;114183;-76
2022/12/07 01:46:48;;;;;;;9.70;6.03;;;6.70;94.20;;;6.93;62.31;98799.94;4961167;28;114241;-76
2022/12/07 01:49:29;;;;;;;8.53;5.50;;;6.50;94.10;;;6.92;62.67;98805.72;4973352;28;124073;-76
2022/12/07 01:52:26;;;;;;;8.63;5.23;;;6.50;94.40;;;6.92;61.94;98803.78;4954293;28;123773;-76
2022/12/07 01:55:00;;;;;;;9.20;5.27;;;6.50;94.10;;;6.91;62.14;98793.91;4972334;28;113059;-76
2022/12/07 01:57:27;;;;;;;7.93;5.60;;;6.50;94.10;;;6.88;62.27;98796.41;4971211;28;113726;-76
2022/12/07 01:59:55;;;;;;;7.13;5.23;;;6.40;94.00;;;6.84;62.08;98801.66;4948868;28;124670;-75
2022/12/07 02:02:32;;;;;;;9.43;5.93;;;6.40;94.00;;;6.88;62.09;98799.97;4954210;28;123294;-76
2022/12/07 02:05:01;;;;;;;8.47;5.10;;;6.40;94.00;;;6.85;62.35;98801.38;4955072;28;114876;-76
2022/12/07 02:07:29;;;;;;;8.20;6.00;;;6.60;94.10;;;6.86;62.49;98804.94;4953447;28;114748;-75
2022/12/07 02:09:55;;;;;;;9.70;6.80;;;6.40;94.00;;;6.84;62.28;98802.47;4965274;28;124077;-75
2022/12/07 02:12:25;;;;;;;10.07;6.60;;;6.40;94.00;;;6.84;62.36;98796.16;4954180;28;123675;-75
2022/12/07 02:14:52;;;;;;;8.97;6.67;;;7.60;94.50;;;6.82;62.35;98798.38;4976116;28;114134;-75
2022/12/07 02:17:47;;;;;;;8.03;5.47;;;6.40;94.00;;;6.84;62.33;98801.66;4949398;28;113163;-75
2022/12/07 02:20:18;;;;;;;9.27;5.50;;;6.40;94.10;;;6.84;62.74;98794.22;4960435;28;124659;-75
2022/12/07 02:23:04;;;;;;;7.80;5.37;;;6.50;94.20;;;6.87;62.52;98803.81;4979762;28;124013;-77
2022/12/07 02:26:12;;;;;;;10.20;5.83;;;6.40;94.10;;;6.89;62.12;98792.56;4962620;28;112963;-75
2022/12/07 02:29:11;;;;;;;9.53;5.67;;;6.40;94.10;;;6.84;62.32;98790.66;4953263;28;113932;-75
2022/12/07 02:31:47;;;;;;;8.20;5.27;;;6.40;94.00;;;6.79;62.58;98788.78;4930933;28;123289;-75
2022/12/07 02:34:50;;;;;;;8.53;5.50;;;7.90;94.60;;;6.79;62.51;98783.28;4933911;28;123795;-76
2022/12/07 02:37:25;;;;;;;9.57;5.40;;;6.40;94.00;;;6.80;62.62;98784.13;4941420;28;113435;-75
2022/12/07 02:40:05;;;;;;;8.60;5.20;;;6.40;94.10;;;6.83;62.34;98783.56;4945577;28;112903;-76
2022/12/07 02:42:52;;;;;;;9.90;6.60;;;6.60;94.20;;;6.85;62.03;98775.81;4931365;28;123067;-76
2022/12/07 02:45:22;;;;;;;8.60;5.60;;;6.50;94.20;;;6.79;62.68;98779.72;4937962;28;123773;-76
2022/12/07 02:47:53;;;;;;;9.70;6.00;;;6.40;94.10;;;6.80;62.59;98784.94;4935288;28;114482;-76
2022/12/07 02:50:21;;;;;;;9.53;6.53;;;6.40;94.10;;;6.77;62.34;98780.03;4914572;28;113815;-76
2022/12/07 02:52:48;;;;;;;8.47;6.13;;;6.30;94.10;;;6.78;62.03;98780.84;4909841;28;122836;-75
2022/12/07 02:55:19;;;;;;;9.07;5.20;;;6.30;94.10;;;6.78;62.15;98765.19;4910260;28;124507;-76
2022/12/07 02:57:56;;;;;;;9.13;6.03;;;6.40;94.10;;;6.81;62.34;98770.09;4908457;28;115191;-76
2022/12/07 03:00:23;;;;;;;10.60;6.40;;;6.30;94.00;;;6.80;62.19;98767.66;4910829;28;114537;-76
2022/12/07 03:02:58;;;;;;;10.40;6.50;;;6.40;94.10;;;6.82;62.14;98765.41;4916694;28;124492;-76
2022/12/07 03:06:10;;;;;;;7.40;5.57;;;6.40;94.10;;;6.83;62.43;98762.41;4892865;28;123935;-76
2022/12/07 03:09:09;;;;;;;8.57;5.90;;;6.40;94.10;;;6.81;61.95;98763.78;4911139;28;114025;-76
2022/12/07 03:11:50;;;;;;;8.70;6.20;;;6.40;94.00;;;6.81;62.38;98769.28;4907766;28;113434;-76
2022/12/07 03:14:35;;;;;;;8.33;6.20;;;6.40;94.10;;;6.81;62.15;98758.28;4907886;28;124095;-76
2022/12/07 03:17:27;;;;;;;7.23;5.40;;;6.40;94.00;;;6.79;62.37;98753.09;4904573;28;122838;-76
2022/12/07 03:19:59;;;;;;;9.30;6.13;;;6.40;94.00;;;6.78;61.90;98761.63;4893847;28;113997;-76
2022/12/07 03:22:31;;;;;;;6.97;5.13;;;6.40;94.30;;;6.78;62.40;98750.63;4935619;28;114906;-76
2022/12/07 03:25:03;;;;;;;9.10;4.63;;;6.50;94.00;;;6.81;62.44;98750.88;4918097;28;123082;-76
2022/12/07 03:27:35;;;;;;;11.60;5.70;;;6.40;94.00;;;6.84;62.48;98749.47;4940986;28;123687;-75
2022/12/07 03:30:13;;;;;;;8.33;5.83;;;6.40;94.00;;;6.83;62.00;98756.91;4960330;28;114053;-75
2022/12/07 03:32:50;;;;;;;7.73;5.70;;;6.40;93.90;;;6.80;61.77;98756.66;4921853;28;113769;-75
2022/12/07 03:35:30;;;;;;;8.63;6.30;;;6.40;93.90;;;6.77;62.33;98748.97;4915353;28;122930;-73
2022/12/07 03:38:30;;;;;;;8.67;5.87;;;6.30;93.80;;;6.73;62.10;98754.25;4935700;28;123916;-75
2022/12/07 03:41:03;;;;;;;7.37;5.60;;;6.30;93.80;;;6.71;61.82;98752.91;4938171;28;113418;-75
2022/12/07 03:43:30;;;;;;;10.33;5.70;;;6.30;93.80;;;6.64;62.11;98751.31;4949280;28;114065;-75
2022/12/07 03:45:59;;;;;;;9.63;7.03;;;6.30;93.70;;;6.60;62.08;98736.50;4945305;28;123918;-75
2022/12/07 03:48:37;;;;;;;7.47;5.57;;;6.20;93.70;;;6.60;61.79;98750.22;4966429;28;124227;-76
2022/12/07 03:51:27;;;;;;;10.50;6.40;;;6.20;93.70;;;6.58;62.33;98748.88;4929178;28;115869;-74
2022/12/07 03:54:10;;;;;;;8.03;5.80;;;6.20;93.70;;;6.56;62.23;98745.63;4951622;28;114843;-75
2022/12/07 03:56:38;;;;;;;8.53;5.37;;;6.20;93.80;;;6.53;62.14;98747.00;4929527;28;122783;-76
2022/12/07 03:59:05;;;;;;;8.03;6.10;;;6.20;93.70;;;6.54;62.02;98742.34;4949881;28;123760;-75
2022/12/07 04:01:32;;;;;;;9.47;5.73;;;6.60;93.90;;;6.49;62.32;98734.97;4942795;28;114179;-75
2022/12/07 04:03:58;;;;;;;10.37;7.07;;;6.20;93.70;;;6.49;61.98;98740.44;4939870;28;112867;-74
2022/12/07 04:06:25;;;;;;;7.83;5.87;;;6.70;93.90;;;6.47;61.88;98739.09;4952190;28;123338;-76
2022/12/07 04:08:51;;;;;;;8.20;6.03;;;6.10;93.60;;;6.45;62.22;98733.91;4951384;28;122689;-75
2022/12/07 04:11:18;;;;;;;8.03;6.03;;;6.10;93.90;;;6.44;61.78;98726.75;4953139;28;114286;-76
2022/12/07 04:16:29;;;;;;;6.70;4.53;;;6.10;93.60;;;6.42;62.38;98726.22;4957342;28;123782;-75
2022/12/07 04:18:56;;;;;;;8.10;5.87;;;6.10;93.60;;;6.44;62.03;98736.94;4960302;28;124103;-76
2022/12/07 04:21:22;;;;;;;9.60;6.80;;;6.00;93.60;;;6.44;62.18;98731.44;4955900;28;114355;-74
2022/12/07 04:23:49;;;;;;;8.40;5.93;;;6.10;93.60;;;6.39;61.81;98721.31;4956708;28;114456;-75
2022/12/07 04:26:15;;;;;;;8.23;6.40;;;6.00;93.50;;;6.34;61.90;98710.38;4940700;28;123223;-75
2022/12/07 04:28:43;;;;;;;8.53;5.77;;;6.00;93.50;;;6.31;61.55;98716.44;4970820;28;122806;-75
2022/12/07 04:31:09;;;;;;;8.47;5.37;;;6.00;93.60;;;6.29;62.07;98703.03;4953258;28;114277;-74
2022/12/07 04:33:37;;;;;;;7.53;5.73;;;6.00;93.50;;;6.29;62.29;98707.69;4953359;28;114481;-75
2022/12/07 04:36:12;;;;;;;7.83;5.47;;;5.90;93.50;;;6.31;62.12;98702.72;4935443;28;124027;-75
2022/12/07 04:38:38;;;;;;;9.20;6.80;;;5.90;93.50;;;6.34;61.95;98700.25;4962194;28;123927;-76
2022/12/07 04:41:09;;;;;;;7.00;4.97;;;6.20;93.70;;;6.37;62.18;98701.59;4926026;28;114581;-75
2022/12/07 04:43:36;;;;;;;6.17;4.63;;;6.00;93.60;;;6.40;61.80;98701.84;4929736;28;115177;-76
2022/12/07 04:46:02;;;;;;;5.60;4.40;;;6.00;93.50;;;6.45;61.23;98686.41;4936380;28;122160;-76
2022/12/07 04:48:29;;;;;;;6.20;4.80;;;6.00;93.50;;;6.48;61.57;98689.41;4950832;28;124338;-75
2022/12/07 04:50:57;;;;;;;6.40;4.60;;;6.00;93.50;;;6.50;61.50;98687.22;4954084;28;114250;-76
2022/12/07 04:53:24;;;;;;;5.43;3.90;;;6.00;93.40;;;6.55;60.93;98684.38;4933823;28;113912;-75
2022/12/07 04:55:50;;;;;;;6.17;4.20;;;6.10;93.30;;;6.56;60.85;98682.50;4951599;28;124045;-74
2022/12/07 04:58:16;;;;;;;9.00;4.90;;;6.10;93.10;;;6.57;60.78;98686.88;4950784;28;123787;-74
2022/12/07 05:00:44;;;;;;;5.93;4.10;;;6.10;93.00;;;6.57;59.87;98681.38;4950356;28;114677;-74
2022/12/07 05:03:11;;;;;;;6.27;4.87;;;6.10;92.90;;;6.55;59.76;98681.66;4953539;28;113907;-75
2022/12/07 05:05:41;;;;;;;4.00;3.20;;;6.10;92.70;;;6.57;60.03;98684.94;4934735;28;123069;-75
2022/12/07 05:08:07;;;;;;;6.40;4.00;;;6.10;92.60;;;6.62;59.76;98692.31;4952466;28;124723;-75
2022/12/07 05:10:34;;;;;;;6.70;4.37;;;6.20;92.60;;;6.65;59.39;98691.72;4933196;28;114222;-75
2022/12/07 05:13:00;;;;;;;4.20;3.50;;;6.50;92.60;;;6.69;58.95;98694.69;4950128;28;114124;-75
2022/12/07 05:15:27;;;;;;;6.83;3.40;;;7.10;92.70;;;6.71;58.37;98697.97;4949957;28;123991;-75
2022/12/07 05:17:53;;;;;;;4.87;3.20;;;6.20;92.20;;;6.71;58.65;98703.47;4951022;28;123710;-74
2022/12/07 05:20:20;;;;;;;5.70;3.00;;;6.20;92.10;;;6.73;58.33;98701.25;4953010;28;114316;-75
2022/12/07 05:22:47;;;;;;;5.60;3.57;;;6.20;92.00;;;6.75;57.94;98705.34;4946260;28;114058;-75
2022/12/07 05:25:13;;;;;;;4.10;3.50;;;6.40;91.90;;;6.77;57.88;98696.81;4935967;28;124132;-75
2022/12/07 05:27:40;;;;;;;3.60;2.97;;;6.30;91.70;;;6.77;57.97;98696.81;4961521;28;123640;-75
2022/12/07 05:30:07;;;;;;;4.50;3.83;;;6.30;91.60;;;6.78;57.28;98717.69;4972101;28;115614;-75
2022/12/07 05:32:33;;;;;;;5.67;3.70;;;6.30;91.50;;;6.78;57.52;98721.25;4971264;28;114585;-75
2022/12/07 05:35:00;;;;;;;5.40;3.73;;;6.30;91.50;;;6.79;57.14;98716.56;4960097;28;124067;-75
2022/12/07 05:37:26;;;;;;;5.77;4.10;;;6.30;91.40;;;6.76;56.83;98720.72;4967567;28;123739;-75
2022/12/07 05:39:53;;;;;;;4.90;3.53;;;6.30;91.30;;;6.74;57.15;98713.88;4965958;28;114104;-75
2022/12/07 05:42:20;;;;;;;4.73;3.50;;;6.30;91.30;;;6.73;57.61;98725.97;4969673;28;114547;-75
2022/12/07 05:44:46;;;;;;;5.90;4.60;;;7.00;91.60;;;6.73;57.00;98729.53;4962232;28;123723;-75
2022/12/07 05:47:14;;;;;;;6.03;3.47;;;6.30;91.40;;;6.73;56.99;98728.72;4975901;28;123717;-75
2022/12/07 05:49:42;;;;;;;4.70;3.87;;;6.30;91.40;;;6.71;57.55;98726.25;4953768;28;114014;-75
2022/12/07 05:52:08;;;;;;;5.10;3.93;;;6.20;91.30;;;6.70;57.73;98719.13;4966249;28;112732;-75
2022/12/07 05:54:35;;;;;;;6.17;4.00;;;6.20;91.40;;;6.71;57.78;98733.69;4974587;28;123814;-75
2022/12/07 05:57:01;;;;;;;10.30;3.63;;;6.20;91.50;;;6.71;57.89;98741.91;4972749;28;122975;-74
2022/12/07 05:59:28;;;;;;;6.90;4.57;;;6.60;91.60;;;6.72;57.90;98732.59;4972345;28;114317;-74
2022/12/07 06:02:17;;;;;;;6.47;4.83;;;6.30;91.50;;;6.72;57.20;98736.16;4965438;28;114305;-75
2022/12/07 06:04:46;;;;;;;5.80;4.13;;;6.20;91.40;;;6.69;57.37;98733.13;4971020;28;123895;-76
2022/12/07 06:07:16;;;;;;;6.80;3.90;;;6.20;91.40;;;6.68;57.79;98734.25;4951070;28;123802;-75
2022/12/07 06:09:45;;;;;;;8.93;4.70;;;6.30;91.40;;;6.67;57.62;98718.91;4949425;28;114086;-75
2022/12/07 06:14:58;;;;;;;6.50;4.57;;;7.40;91.90;;;6.66;57.68;98729.03;4956641;28;124567;-74
2022/12/07 06:17:25;;;;;;;6.63;4.40;;;6.20;91.40;;;6.66;57.13;98734.53;4978106;28;123802;-75
2022/12/07 06:19:51;;;;;;;4.47;3.77;;;6.20;91.40;;;6.66;57.77;98740.03;4950386;28;115127;-74
2022/12/07 06:22:18;;;;;;;5.47;3.77;;;6.20;91.40;;;6.67;57.67;98747.16;4950416;28;114615;-75
2022/12/07 06:24:45;;;;;;;5.70;4.40;;;6.20;91.40;;;6.68;57.33;98742.50;4969701;28;124142;-75
2022/12/07 06:27:11;;;;;;;6.20;4.20;;;6.20;91.30;;;6.69;57.08;98744.13;4947888;28;123930;-75
2022/12/07 06:29:38;;;;;;;5.63;4.03;;;5.00;90.90;;;6.70;57.48;98734.78;4942128;28;113311;-75
2022/12/07 06:32:04;;;;;;;8.43;4.67;;;6.20;91.30;;;6.69;57.39;98736.72;4940956;28;113733;-75
2022/12/07 06:34:31;;;;;;;8.03;5.10;;;6.60;91.50;;;6.66;57.18;98739.22;4939548;28;124074;-75
2022/12/07 06:36:57;;;;;;;8.53;4.60;;;6.20;91.30;;;6.62;57.40;98734.28;4958235;28;123755;-76
2022/12/07 06:39:27;;;;;;;6.73;5.13;;;6.20;91.20;;;6.59;57.42;98729.38;4946524;28;113730;-76
2022/12/07 06:41:54;;;;;;;7.40;5.00;;;6.20;91.20;;;6.58;58.23;98730.50;4950819;28;114367;-74
2022/12/07 06:44:21;;;;;;;8.03;5.17;;;6.10;91.30;;;6.61;57.92;98727.19;4955132;28;124172;-75
2022/12/07 06:46:49;;;;;;;6.20;4.40;;;6.20;91.40;;;6.61;57.21;98729.13;4945223;28;124183;-75
2022/12/07 06:49:16;;;;;;;7.93;4.13;;;6.20;91.30;;;6.60;57.63;98725.53;4949723;28;114808;-74
2022/12/07 06:51:43;;;;;;;5.90;4.27;;;6.10;91.30;;;6.61;57.17;98735.41;4931612;28;114428;-75
2022/12/07 06:54:13;;;;;;;5.50;4.07;;;6.20;91.30;;;6.62;57.08;98726.06;4952837;28;124103;-75
2022/12/07 06:56:40;;;;;;;4.93;3.83;;;6.20;91.20;;;6.62;56.94;98734.28;4948185;28;124319;-75
2022/12/07 06:59:07;;;;;;;6.33;4.67;;;6.20;91.20;;;6.62;57.43;98739.78;4935182;28;113319;-75
2022/12/07 07:01:35;;;;;;;7.33;5.43;;;6.20;91.20;;;6.61;56.84;98738.16;4955236;28;114289;-76
2022/12/07 07:04:02;;;;;;;8.80;5.30;;;6.10;91.00;;;6.60;56.92;98742.00;4916648;28;122627;-76
2022/12/07 07:06:28;;;;;;;6.40;4.07;;;6.10;91.00;;;6.60;56.92;98743.94;4949318;28;123595;-76
2022/12/07 07:08:55;;;;;;;5.23;3.73;;;6.10;91.00;;;6.59;56.64;98747.78;4956012;28;115253;-75
2022/12/07 07:11:21;;;;;;;5.03;3.67;;;6.10;91.00;;;6.58;56.78;98740.63;4953325;28;114782;-75
2022/12/07 07:13:48;;;;;;;5.80;3.90;;;7.90;91.60;;;6.59;56.55;98750.53;4935339;28;124741;-76
2022/12/07 07:16:15;;;;;;;6.53;4.30;;;6.10;90.90;;;6.61;56.92;98749.16;4940811;28;122797;-76
2022/12/07 07:18:42;;;;;;;7.57;4.67;;;6.10;90.90;;;6.62;56.66;98745.28;4942493;28;114247;-76
2022/12/07 07:21:08;;;;;;;5.10;4.00;;;6.20;90.90;;;6.61;56.56;98754.63;4948817;28;113886;-76
2022/12/07 07:23:35;;;;;;;5.70;4.20;;;6.20;90.90;;;6.61;56.49;98754.63;4923819;28;123045;-76
2022/12/07 07:26:01;;;;;;;5.07;4.03;;;6.10;90.80;;;6.60;56.79;98755.72;4958888;28;124023;-76
2022/12/07 07:28:28;;;;;;;4.77;3.60;;;6.70;91.00;;;6.60;56.51;98752.16;4977785;28;113913;-85
2022/12/07 07:30:54;;;;;;;7.50;3.80;;;6.20;90.80;;;6.62;56.33;98753.50;4937971;28;111263;-76
2022/12/07 07:33:21;;;;;;;4.30;3.40;;;6.10;90.80;;;6.66;56.40;98758.44;4970068;28;124058;-76
2022/12/07 07:35:47;;;;;;;5.60;3.70;;;6.20;90.80;;;6.68;56.54;98758.97;4966175;28;122727;-76
2022/12/07 07:38:14;;;;;;;6.90;3.93;;;6.20;90.80;;;6.69;56.66;98757.84;4967791;28;114116;-76
2022/12/07 07:40:40;;;;;;;6.37;4.50;;;6.20;90.70;;;6.68;55.89;98767.19;4950639;28;113070;-75
2022/12/07 07:43:07;;;;;;;5.30;3.60;;;6.20;90.60;;;6.67;56.61;98763.63;4951291;28;122986;-76
2022/12/07 07:45:33;;;;;;;7.17;4.10;;;6.20;90.60;;;6.68;55.80;98762.53;4969587;28;123440;-75
2022/12/07 07:48:00;;;;;;;5.97;3.40;;;6.20;90.60;;;6.69;56.18;98764.19;4967668;28;114215;-75
2022/12/07 07:50:26;;;;;;;6.97;4.07;;;6.20;90.60;;;6.70;56.27;98762.25;4966982;28;113804;-76
2022/12/07 07:52:53;;;;;;;6.10;4.27;;;6.20;90.50;;;6.72;55.75;98765.53;4967787;28;125997;-76
2022/12/07 07:55:19;;;;;;;5.10;3.40;;;6.20;90.50;;;6.72;56.05;98774.59;4952972;28;123450;-76
2022/12/07 07:57:47;;;;;;;5.03;3.63;;;6.20;90.50;;;6.74;56.20;98768.78;4963070;28;114405;-76
2022/12/07 08:00:15;;;;;;;6.33;4.30;;;6.20;90.40;;;6.75;55.67;98767.69;4967782;28;114972;-76
2022/12/07 08:02:46;;;;;;;5.07;3.90;;;6.20;90.40;;;6.76;55.96;98763.84;4932866;28;123489;-76
2022/12/07 08:05:13;;;;;;;5.00;3.50;;;6.70;90.50;;;6.75;55.28;98764.94;4952275;28;123144;-75
2022/12/07 08:07:40;;;;;;;5.90;3.80;;;6.40;90.30;;;6.71;55.67;98763.88;4965790;28;114464;-76
2022/12/07 08:10:10;;;;;;;5.90;4.33;;;6.20;90.10;;;6.71;55.12;98766.63;4968674;28;114392;-75
2022/12/07 08:13:10;;;;;;;7.00;4.63;;;6.20;90.10;;;6.68;54.90;98770.75;4950632;28;123880;-76
2022/12/07 08:15:30;;;;;;;7.00;4.90;;;6.20;90.00;;;6.63;54.96;98768.88;4970998;28;123704;-75
2022/12/07 08:17:57;;;;;;;7.70;4.47;;;6.20;89.70;;;6.57;54.79;98763.72;4949875;28;114208;-76
2022/12/07 08:20:23;;;;;;;6.03;4.70;;;6.10;89.70;;;6.56;55.28;98764.84;4947933;28;114485;-75
2022/12/07 08:22:50;;;;;;;10.87;4.37;;;6.10;89.70;;;6.55;55.37;98769.47;4947210;28;124518;-76
2022/12/07 08:25:17;;;;;;;5.07;3.83;;;6.20;89.70;;;6.52;54.56;98763.75;4950548;28;123989;-75
2022/12/07 08:27:44;;;;;;;6.00;4.33;;;6.10;89.30;;;6.46;54.75;98762.16;4967886;28;114219;-75
2022/12/07 08:30:11;;;;;;;5.93;4.40;;;6.10;89.00;;;6.42;54.42;98767.38;4966708;28;113786;-76
2022/12/07 08:32:37;;;;;;;6.00;3.70;;;6.10;89.10;;;6.42;54.84;98772.88;4967844;28;123818;-76
2022/12/07 08:35:04;;;;;;;6.30;3.57;;;6.70;89.70;;;6.45;54.72;98772.34;4970357;28;124182;-77
2022/12/07 08:37:32;;;;;;;8.43;3.90;;;6.10;89.30;;;6.49;54.70;98772.56;4971780;28;114066;-76
2022/12/07 08:39:59;;;;;;;7.67;4.20;;;6.10;89.30;;;6.53;54.87;98773.63;4951408;28;113952;-77
2022/12/07 08:42:27;;;;;;;5.27;3.87;;;6.20;89.30;;;6.56;54.95;98778.56;4952220;28;123309;-77
2022/12/07 08:44:53;;;;;;;6.23;4.10;;;6.10;89.20;;;6.58;54.42;98782.66;4972932;28;124120;-77
2022/12/07 08:47:20;;;;;;;6.50;4.40;;;6.10;88.90;;;6.57;53.97;98778.25;4971848;28;115209;-76
2022/12/07 08:49:49;;;;;;;7.23;4.07;;;6.10;88.80;;;6.58;54.00;98781.81;4973305;28;115381;-77
2022/12/07 08:52:17;;;;;;;4.50;3.50;;;6.30;88.70;;;6.59;54.33;98773.31;4953398;28;124755;-77
2022/12/07 08:54:44;;;;;;;4.60;3.40;;;6.20;88.70;;;6.64;54.77;98778.75;4953333;28;123568;-76
2022/12/07 08:57:12;;;;;;;4.80;3.20;;;6.30;88.90;;;6.71;54.14;98775.66;4953369;28;114130;-79
2022/12/07 08:59:39;;;;;;;4.80;3.20;;;7.30;89.80;;;6.77;54.60;98779.19;4953348;28;113972;-76
2022/12/07 09:02:06;;;;;;;4.93;3.43;;;6.50;89.00;;;6.82;54.40;98781.88;4973461;28;124646;-76
2022/12/07 09:04:33;;;;;;;4.50;3.23;;;6.90;89.30;;;6.84;53.88;98779.69;4954511;28;124268;-76
2022/12/07 09:06:59;;;;;;;5.77;3.87;;;7.10;89.40;;;6.92;54.17;98787.28;4931435;28;113452;-76
2022/12/07 09:09:26;;;;;;;5.60;3.60;;;6.40;88.80;;;6.97;54.38;98769.97;4966605;28;113733;-76
2022/12/07 09:11:52;;;;;;;5.37;3.00;;;6.50;88.70;;;7.04;53.51;98776.75;4955533;28;123927;-76
2022/12/07 09:14:19;;;;;;;7.93;3.43;;;6.50;88.70;;;7.07;53.37;98778.91;4970462;28;123994;-76
2022/12/07 09:16:45;;;;;;;4.53;3.43;;;6.50;88.50;;;7.08;53.31;98771.50;4971244;28;114652;-77
2022/12/07 09:19:12;;;;;;;5.10;3.83;;;6.60;88.10;;;7.05;53.28;98775.63;4955515;28;113084;-76
2022/12/07 09:21:38;;;;;;;6.67;3.10;;;6.60;88.10;;;7.04;52.98;98774.00;4955230;28;123231;-76
2022/12/07 09:24:05;;;;;;;5.63;3.70;;;6.60;87.80;;;7.03;53.28;98777.03;4971557;28;123851;-76
2022/12/07 09:26:32;;;;;;;3.77;3.20;;;6.60;87.70;;;7.02;52.88;98778.97;4930557;28;114284;-76
2022/12/07 09:28:58;;;;;;;4.43;3.40;;;6.60;87.40;;;6.99;53.06;98778.75;4934643;28;113611;-76
2022/12/07 09:31:26;;;;;;;3.57;2.40;;;6.50;87.20;;;6.98;53.54;98769.66;4924582;28;123166;-77
2022/12/07 09:34:00;;;;;;;4.20;3.40;;;6.70;87.50;;;7.02;53.35;98764.41;4938675;28;123805;-76
2022/12/07 09:36:28;;;;;;;4.20;3.27;;;6.60;87.50;;;7.05;53.16;98770.16;4930314;28;115157;-77
2022/12/07 09:38:55;;;;;;;4.70;3.37;;;6.60;87.70;;;7.11;52.91;98772.84;4929489;28;114763;-77
2022/12/07 09:41:27;;;;;;;5.90;3.40;;;6.60;87.60;;;7.14;53.23;98772.25;4930351;28;123933;-76
2022/12/07 09:44:09;;;;;;;3.83;3.00;;;6.60;87.50;;;7.14;53.33;98770.31;4928566;28;123574;-76
2022/12/07 09:46:41;;;;;;;4.33;3.20;;;6.60;87.50;;;7.18;53.07;98762.34;4909005;28;113502;-76
2022/12/07 09:49:26;;;;;;;5.40;3.27;;;6.70;87.60;;;7.24;53.19;98766.66;4916346;28;114192;-76
2022/12/07 09:52:07;;;;;;;4.67;3.00;;;6.70;87.60;;;7.29;53.35;98770.16;4931144;28;124007;-76
2022/12/07 09:54:41;;;;;;;4.63;3.13;;;6.80;87.70;;;7.35;53.06;98762.69;4946993;28;96920;-76
2022/12/07 09:57:12;;;;;;;4.00;2.97;;;6.80;87.70;;;7.40;53.33;98759.88;4923604;28;114332;-76
2022/12/07 09:59:40;;;;;;;4.60;3.13;;;6.90;87.80;;;7.45;53.08;98759.81;4968259;28;114996;-75
2022/12/07 10:02:42;;;;;;;4.30;3.20;;;6.90;87.80;;;7.48;52.59;98750.16;4940637;28;123812;-75
2022/12/07 10:05:21;;;;;;;3.27;2.83;;;7.00;88.10;;;7.48;52.81;98753.72;4967462;28;123774;-75
2022/12/07 10:07:47;;;;;;;3.80;3.00;;;7.00;87.40;;;7.44;53.11;98747.19;4938190;28;114097;-76
2022/12/07 10:10:31;;;;;;;4.77;3.13;;;7.80;88.00;;;7.46;52.77;98744.13;4982882;28;114100;-76
2022/12/07 10:13:13;;;;;;;3.80;3.20;;;7.00;87.40;;;7.47;52.91;98737.56;4979183;28;124017;-75
2022/12/07 10:15:56;;;;;;;3.00;2.70;;;7.00;87.20;;;7.44;52.93;98741.72;4957340;28;123843;-75
2022/12/07 10:18:38;;;;;;;3.23;2.70;;;7.00;87.30;;;7.43;53.04;98731.00;4973423;28;114201;-75
2022/12/07 10:21:26;;;;;;;3.57;2.77;;;7.00;87.40;;;7.43;53.11;98731.00;4967308;28;113845;-76
2022/12/07 10:24:19;;;;;;;3.80;3.03;;;7.00;87.40;;;7.43;53.33;98726.31;4973770;28;123382;-75
2022/12/07 10:26:48;;;;;;;3.73;2.57;;;7.00;87.50;;;7.42;53.37;98723.88;4970637;28;124059;-76
2022/12/07 10:29:34;;;;;;;3.50;2.77;;;7.00;87.60;;;7.46;53.42;98733.97;4973580;28;115292;-75
2022/12/07 10:32:05;;;;;;;4.33;2.63;;;7.00;87.70;;;7.48;53.41;98731.75;4974131;28;114838;-75
2022/12/07 10:34:37;;;;;;;3.50;2.63;;;7.00;87.80;;;7.53;53.47;98730.88;4958056;28;124203;-76
2022/12/07 10:37:16;;;;;;;3.60;2.93;;;7.10;87.90;;;7.59;53.37;98728.88;4950979;28;124280;-76
2022/12/07 10:39:57;;;;;;;4.10;2.70;;;7.10;88.10;;;7.66;53.75;98729.34;4963310;28;114725;-77
2022/12/07 10:42:27;;;;;;;3.57;2.97;;;7.10;88.30;;;7.70;53.50;98731.19;4951525;28;112144;-76
2022/12/07 10:45:17;;;;;;;3.70;2.90;;;7.30;88.40;;;7.74;53.33;98725.94;4955244;28;125364;-75
2022/12/07 10:47:56;;;;;;;2.63;2.43;;;7.20;88.10;;;7.74;53.53;98723.19;4953394;28;123862;-75